NCAR-RAP Real-Time Weather Data

Output produced by METARs form (08 May 2021  02:22 UTC)
found at http://weather.rap.ucar.edu/surface/
 
K2WX 080156Z AUTO 11021G31KT 14/M04 A2981 RMK AO1 PK WND 12039/0100 SLP094 T01441039
K2WX 080056Z AUTO 11024G33KT 16/M03 A2980 RMK AO1 PK WND 10037/0028 SLP091 T01611033
K2WX 072356Z AUTO 12024G36KT 18/M03 A2981 RMK AO1 PK WND 12039/2329 SLP098 T01781033 10200 20172 56025
K2WX 072256Z AUTO 13028G38KT 18/M03 A2984 RMK AO1 PK WND 13041/2246 SLP104 T01831033
K2WX 072156Z AUTO 13025G37KT 19/M03 A2985 RMK AO1 PK WND 13038/2108 SLP108 T01891033
K2WX 072056Z AUTO 14024G37KT 19/M03 A2990 RMK AO1 PK WND 13039/2040 SLP123 T01941033 56024
K2WX 071956Z AUTO 12022G35KT 19/M03 A2992 RMK AO1 PK WND 13038/1942 SLP131 T01941033
K2WX 071856Z AUTO 14027G36KT 18/M04 A2995 RMK AO1 PK WND 13036/1854 SLP138 T01831039
K2WX 071756Z AUTO 11023G32KT 18/M04 A2997 RMK AO1 PK WND 13034/1745 SLP147 T01781039 10178 20033 58023
K2WX 071656Z AUTO 12022G31KT 16/M04 A3000 RMK AO1 PK WND 12031/1655 SLP158 T01611044
K2WX 071556Z AUTO 12021G28KT 14/M04 A3003 RMK AO1 PK WND 11030/1528 SLP165 T01441044
K2WX 071456Z AUTO 12018G27KT 13/M05 A3005 RMK AO1 PK WND 13027/1456 SLP172 T01281050 58008
K2WX 071356Z AUTO 11012KT 09/M04 A3007 RMK AO1 SLP180 T00941044
K2WX 071256Z AUTO 11009KT 06/M04 A3008 RMK AO1 SLP187 T00611044